Time;durP1;ratioP1;P1;durP2;ratioP2;P2;SDS_P1;SDS_P2;PMS_P1;PMS_P2;Temp;Humidity;BMP_temperature;BMP_pressure;BME280_temperature;BME280_humidity;BME280_pressure;Samples;Min_cycle;Max_cycle;Signal;HPM_P1;HPM_P2
2022/11/15 00:00:49;;;;;;;5.03;4.53;;;;;;;20.10;50.51;97211.81;5015807;28;20191;-91
2022/11/15 00:03:22;;;;;;;5.50;5.00;;;;;;;20.15;50.19;97199.22;5015993;28;20206;-91
2022/11/15 00:05:48;;;;;;;5.43;4.93;;;;;;;20.97;50.38;97338.72;5000385;28;20436;-91
2022/11/15 00:08:15;;;;;;;5.43;4.93;;;;;;;19.76;50.37;97133.47;5015624;28;20215;-91
2022/11/15 00:10:42;;;;;;;5.00;4.57;;;;;;;20.20;50.24;97208.78;5000212;28;20202;-91
2022/11/15 00:13:10;;;;;;;5.23;4.73;;;;;;;20.83;50.43;97317.84;4999975;28;20230;-91
2022/11/15 00:15:40;;;;;;;5.33;4.90;;;;;;;20.18;50.28;97212.09;5000151;28;20210;-92
2022/11/15 00:18:14;;;;;;;4.73;4.33;;;;;;;20.04;50.37;97182.75;4999738;28;20203;-91
2022/11/15 00:20:40;;;;;;;4.83;4.43;;;;;;;20.58;50.51;97266.91;5016149;28;20250;-92
2022/11/15 00:23:07;;;;;;;5.37;4.87;;;;;;;20.57;50.39;97262.59;5016657;28;20203;-91
2022/11/15 00:25:33;;;;;;;5.33;4.87;;;;;;;20.97;50.28;97339.59;4972621;28;20203;-91
2022/11/15 00:28:00;;;;;;;5.20;4.73;;;;;;;20.62;50.69;97273.84;4998172;28;20219;-92
2022/11/15 00:30:27;;;;;;;5.30;4.80;;;;;;;20.22;50.46;97213.94;5015257;28;20186;-91
2022/11/15 00:32:53;;;;;;;5.37;4.87;;;;;;;20.18;50.55;97210.41;5015004;28;20207;-91
2022/11/15 00:35:20;;;;;;;5.13;4.73;;;;;;;19.25;50.64;97051.97;4999061;28;20259;-91
2022/11/15 00:37:47;;;;;;;5.00;4.50;;;;;;;20.53;50.38;97263.34;4983244;28;20250;-91
2022/11/15 00:40:14;;;;;;;4.97;4.53;;;;;;;20.83;50.24;97316.97;5015574;28;20189;-91
2022/11/15 00:42:41;;;;;;;4.73;4.33;;;;;;;19.72;50.50;97118.03;5000714;28;20203;-92
2022/11/15 00:45:08;;;;;;;4.97;4.47;;;;;;;20.42;50.13;97236.66;5015286;28;20239;-91
2022/11/15 00:47:34;;;;;;;4.87;4.40;;;;;;;20.98;50.39;97336.22;5015540;28;20221;-92
2022/11/15 00:50:01;;;;;;;5.70;4.80;;;;;;;20.59;50.38;97265.22;5015618;28;20230;-91
2022/11/15 00:52:27;;;;;;;4.53;4.13;;;;;;;20.61;50.19;97264.44;5015430;28;20185;-91
2022/11/15 00:54:54;;;;;;;5.43;4.93;;;;;;;20.28;50.35;97206.44;5015150;28;20215;-91
2022/11/15 00:57:20;;;;;;;5.03;4.60;;;;;;;20.32;50.32;97210.81;5016883;28;20245;-91
2022/11/15 00:59:47;;;;;;;5.57;4.57;;;;;;;21.15;50.66;97350.34;5015383;28;20251;-91
2022/11/15 01:02:13;;;;;;;4.80;4.40;;;;;;;20.18;50.03;97179.78;5015682;28;20185;-91
2022/11/15 01:04:40;;;;;;;5.20;4.70;;;;;;;19.71;50.72;97096.75;5010882;28;20263;-91
2022/11/15 01:07:06;;;;;;;4.77;4.37;;;;;;;20.71;50.43;97265.56;5015337;28;20187;-92
2022/11/15 01:09:33;;;;;;;4.90;4.50;;;;;;;20.44;50.45;97224.81;5015822;28;20183;-91
2022/11/15 01:12:00;;;;;;;4.87;4.47;;;;;;;20.08;50.25;97170.13;5015225;28;20202;-91
2022/11/15 01:14:26;;;;;;;5.23;4.80;;;;;;;20.95;50.50;97292.69;4998403;28;20195;-92
2022/11/15 01:16:53;;;;;;;4.90;4.50;;;;;;;20.86;50.56;97279.63;5014932;28;20194;-91
2022/11/15 01:19:19;;;;;;;5.30;4.80;;;;;;;20.35;50.70;97201.56;5014617;28;20183;-92
2022/11/15 01:21:49;;;;;;;5.30;4.80;;;;;;;19.95;50.52;97148.47;5015963;28;20259;-91
2022/11/15 01:24:15;;;;;;;4.50;4.10;;;;;;;20.37;50.51;97201.59;5015009;28;20270;-92
2022/11/15 01:26:44;;;;;;;4.87;4.47;;;;;;;20.93;50.85;97293.44;4997206;28;20231;-91
2022/11/15 01:29:11;;;;;;;4.90;4.50;;;;;;;21.15;50.44;97336.69;4998151;28;20226;-91
2022/11/15 01:31:37;;;;;;;4.93;4.43;;;;;;;20.93;50.46;97291.75;5015788;28;20183;-92
2022/11/15 01:34:04;;;;;;;4.73;4.33;;;;;;;20.39;50.38;97190.63;4999028;28;20207;-91
2022/11/15 01:36:31;;;;;;;4.83;4.43;;;;;;;20.22;50.57;97157.78;5019725;28;20186;-90
2022/11/15 01:38:57;;;;;;;4.77;4.37;;;;;;;20.59;50.19;97240.56;5018315;28;20218;-91
2022/11/15 01:41:26;;;;;;;5.43;4.63;;;;;;;20.57;50.33;97237.06;4983431;28;20188;-90
2022/11/15 01:43:54;;;;;;;4.50;4.10;;;;;;;19.09;50.45;96970.81;5018439;28;20199;-92
2022/11/15 01:46:21;;;;;;;5.00;4.53;;;;;;;21.38;50.13;97356.94;5002160;28;20202;-91
2022/11/15 01:48:47;;;;;;;4.87;4.43;;;;;;;20.47;50.56;97209.56;5019093;28;20544;-90
2022/11/15 01:51:15;;;;;;;4.77;4.37;;;;;;;20.56;50.52;97203.84;5018593;28;20179;-93
2022/11/15 01:53:43;;;;;;;5.23;4.73;;;;;;;21.00;50.45;97283.47;5019156;28;20266;-91
2022/11/15 01:56:12;;;;;;;6.50;4.60;;;;;;;20.54;50.41;97196.16;5017720;28;20209;-92
2022/11/15 01:58:39;;;;;;;4.10;3.80;;;;;;;20.48;50.63;97182.34;4998784;28;20194;-91
2022/11/15 02:01:08;;;;;;;4.97;4.57;;;;;;;20.29;50.46;97141.81;5014731;28;20183;-92
2022/11/15 02:03:39;;;;;;;4.67;4.00;;;;;;;20.55;50.59;97190.25;5017050;28;20199;-91
2022/11/15 02:06:06;;;;;;;4.77;4.33;;;;;;;20.18;50.54;97126.22;5017289;28;20190;-92
2022/11/15 02:08:33;;;;;;;4.70;4.30;;;;;;;20.07;50.13;97101.19;5018148;28;20207;-92
2022/11/15 02:10:59;;;;;;;4.63;4.23;;;;;;;20.28;50.32;97140.94;5002090;28;20187;-91
2022/11/15 02:13:26;;;;;;;5.03;4.53;;;;;;;20.47;50.71;97166.19;5018816;28;20279;-92
2022/11/15 02:16:05;;;;;;;5.17;4.67;;;;;;;21.36;50.49;97316.81;5018580;28;20190;-91
2022/11/15 02:18:37;;;;;;;5.03;4.40;;;;;;;20.39;50.47;97151.44;5018167;28;20274;-90
2022/11/15 02:21:25;;;;;;;4.70;4.30;;;;;;;21.35;50.57;97313.38;5002508;28;20210;-90
2022/11/15 02:24:23;;;;;;;4.70;4.30;;;;;;;21.35;50.64;97305.72;5018283;28;20207;-90
2022/11/15 02:27:01;;;;;;;4.97;4.40;;;;;;;21.36;50.52;97306.59;4989102;28;20208;-91
2022/11/15 02:29:35;;;;;;;5.50;4.27;;;;;;;21.34;50.49;97303.13;5003186;28;20199;-91
2022/11/15 02:32:08;;;;;;;6.37;4.50;;;;;;;20.96;50.70;97233.09;5001931;28;20235;-91
2022/11/15 02:34:41;;;;;;;4.63;4.20;;;;;;;21.36;50.52;97298.91;5002577;28;20238;-91
2022/11/15 02:37:21;;;;;;;4.13;3.83;;;;;;;20.22;50.56;97099.09;5017485;28;20199;-91
2022/11/15 02:40:13;;;;;;;4.80;4.33;;;;;;;20.98;50.54;97226.34;4986063;28;20207;-92
2022/11/15 02:45:37;;;;;;;4.80;4.40;;;;;;;20.42;50.30;97126.00;5005825;28;20189;-91
2022/11/15 02:48:04;;;;;;;5.17;4.67;;;;;;;20.93;50.51;97215.09;5017194;28;20270;-91
2022/11/15 02:50:30;;;;;;;4.67;4.27;;;;;;;21.30;50.39;97281.75;5017011;28;20194;-91
2022/11/15 02:52:57;;;;;;;4.60;4.20;;;;;;;20.57;50.81;97154.53;5017267;28;20270;-92
2022/11/15 02:55:40;;;;;;;4.63;4.00;;;;;;;20.83;50.46;97205.47;5017478;28;20179;-91
2022/11/15 02:58:15;;;;;;;4.50;4.10;;;;;;;20.91;50.61;97208.25;5017175;28;20203;-91
2022/11/15 03:00:50;;;;;;;4.13;3.77;;;;;;;20.96;50.68;97233.09;5017397;28;20203;-92
2022/11/15 03:03:37;;;;;;;4.40;4.00;;;;;;;20.54;50.42;97157.84;5016858;28;20222;-92
2022/11/15 03:06:22;;;;;;;4.50;4.10;;;;;;;21.34;50.50;97282.66;5017344;28;20179;-91
2022/11/15 03:09:21;;;;;;;5.03;4.00;;;;;;;20.74;50.50;97178.81;5017353;28;20261;-91
2022/11/15 03:11:50;;;;;;;4.63;4.23;;;;;;;20.91;50.36;97210.78;5016995;28;20203;-91
2022/11/15 03:14:30;;;;;;;4.03;3.73;;;;;;;21.35;50.30;97289.53;5017130;28;20201;-91
2022/11/15 03:17:14;;;;;;;4.57;4.17;;;;;;;20.62;50.44;97152.97;5017157;28;20259;-90
2022/11/15 03:19:45;;;;;;;4.20;3.90;;;;;;;20.93;50.33;97210.00;5004519;28;20183;-90
2022/11/15 03:22:20;;;;;;;4.60;4.20;;;;;;;20.43;50.54;97131.16;5016945;28;20194;-91
2022/11/15 03:24:49;;;;;;;4.63;4.23;;;;;;;20.35;50.36;97107.13;5017037;28;20526;-91
2022/11/15 03:27:19;;;;;;;4.50;4.10;;;;;;;20.18;50.22;97076.84;5017047;28;20250;-91
2022/11/15 03:30:00;;;;;;;5.07;4.57;;;;;;;19.55;50.03;96968.81;5014598;28;20485;-91
2022/11/15 03:32:31;;;;;;;4.13;3.77;;;;;;;20.58;50.07;97153.72;5008334;28;20179;-91
2022/11/15 03:35:01;;;;;;;4.53;4.13;;;;;;;20.10;50.38;97063.03;5000846;28;20272;-91
2022/11/15 03:37:32;;;;;;;4.50;4.10;;;;;;;20.89;50.15;97204.75;4984609;28;20222;-92
2022/11/15 03:39:59;;;;;;;4.00;3.67;;;;;;;20.88;50.28;97203.06;4984831;28;20217;-91
2022/11/15 03:42:32;;;;;;;4.23;3.83;;;;;;;21.32;50.54;97276.66;5017271;28;20217;-91
2022/11/15 03:45:11;;;;;;;4.70;4.30;;;;;;;21.34;50.31;97277.56;4984454;28;20247;-92
2022/11/15 03:47:49;;;;;;;4.47;4.07;;;;;;;19.85;50.25;97038.50;5016954;28;20230;-92
2022/11/15 03:50:17;;;;;;;4.70;4.30;;;;;;;19.93;50.19;97048.09;5016514;28;20197;-92
2022/11/15 03:52:45;;;;;;;4.50;4.10;;;;;;;21.10;50.30;97221.56;5016107;28;20199;-92
2022/11/15 03:55:14;;;;;;;4.53;4.13;;;;;;;20.54;50.20;97132.31;5015581;28;20254;-91
2022/11/15 03:57:40;;;;;;;4.97;4.40;;;;;;;20.87;50.46;97179.19;5020685;28;20250;-91
2022/11/15 04:00:07;;;;;;;4.13;3.73;;;;;;;20.90;50.20;97183.53;5014743;28;20255;-91
2022/11/15 04:02:34;;;;;;;4.60;4.20;;;;;;;21.23;50.22;97254.28;5016363;28;20209;-91
2022/11/15 04:05:00;;;;;;;4.13;3.83;;;;;;;20.47;50.26;97104.03;5012013;28;20217;-91
2022/11/15 04:07:27;;;;;;;4.73;4.33;;;;;;;21.35;50.20;97253.75;5015796;28;20266;-91
2022/11/15 04:10:03;;;;;;;4.60;4.10;;;;;;;19.60;50.38;96944.34;5015738;28;20203;-91
2022/11/15 04:12:31;;;;;;;4.73;4.10;;;;;;;20.04;49.97;97016.94;5015670;28;20183;-91
2022/11/15 04:15:09;;;;;;;4.73;4.30;;;;;;;20.91;50.10;97180.13;5015539;28;20201;-91
2022/11/15 04:17:45;;;;;;;4.60;4.20;;;;;;;20.58;50.09;97097.53;5016039;28;20203;-91
2022/11/15 04:25:55;;;;;;;4.40;4.00;;;;;;;20.56;50.32;97084.75;5015222;28;20183;-91
2022/11/15 04:28:22;;;;;;;4.43;4.03;;;;;;;20.44;50.47;97050.38;4999570;28;20282;-92
2022/11/15 04:30:48;;;;;;;4.43;4.03;;;;;;;20.91;50.54;97139.28;5008140;28;20206;-92
2022/11/15 04:33:15;;;;;;;4.53;4.13;;;;;;;20.88;50.49;97147.72;5016258;28;20191;-91
2022/11/15 04:35:42;;;;;;;3.93;3.63;;;;;;;20.79;50.21;97144.06;5016206;28;20182;-90
2022/11/15 04:38:09;;;;;;;4.30;3.90;;;;;;;20.90;50.18;97151.16;5015277;28;20227;-91
2022/11/15 04:40:36;;;;;;;4.17;3.83;;;;;;;20.18;50.37;97046.25;5016194;28;20490;-92
2022/11/15 04:43:03;;;;;;;4.17;3.80;;;;;;;20.90;50.48;97166.50;4998867;28;20267;-91
2022/11/15 04:45:30;;;;;;;4.93;3.93;;;;;;;20.86;50.38;97169.81;5015087;28;20243;-91
2022/11/15 04:47:57;;;;;;;4.10;3.80;;;;;;;20.87;50.42;97157.91;5015298;28;20298;-90
2022/11/15 04:50:23;;;;;;;4.00;3.70;;;;;;;20.41;50.44;97073.25;5015402;28;20187;-91
2022/11/15 04:52:51;;;;;;;4.63;4.23;;;;;;;20.26;50.01;97073.72;5013972;28;20310;-91
2022/11/15 04:55:18;;;;;;;4.13;3.73;;;;;;;20.47;50.18;97111.69;5015132;28;20250;-95
2022/11/15 04:57:44;;;;;;;4.40;4.00;;;;;;;20.89;50.40;97156.22;4999215;28;20246;-94
2022/11/15 05:00:13;;;;;;;4.17;3.77;;;;;;;20.94;50.38;97167.44;5012840;28;20179;-95
2022/11/15 05:05:24;;;;;;;4.17;3.87;;;;;;;20.16;50.44;97020.69;5005820;28;20175;-94
2022/11/15 05:07:51;;;;;;;5.20;4.13;;;;;;;20.36;50.31;97051.84;4998624;28;20226;-95
2022/11/15 05:10:18;;;;;;;4.50;4.10;;;;;;;21.34;50.15;97217.09;5014158;28;20183;-95
2022/11/15 05:12:46;;;;;;;4.50;4.10;;;;;;;20.84;50.80;97129.72;4994751;28;20213;-95
2022/11/15 05:15:13;;;;;;;4.43;4.03;;;;;;;18.75;50.22;96767.84;5010731;28;20190;-94
2022/11/15 05:17:39;;;;;;;4.60;4.20;;;;;;;19.88;50.09;96967.19;5002841;28;20206;-95
2022/11/15 05:20:06;;;;;;;4.30;3.90;;;;;;;20.25;50.32;97025.19;4986189;28;20247;-95
2022/11/15 05:22:33;;;;;;;4.53;4.13;;;;;;;20.56;50.15;97081.31;4987975;28;20251;-95
2022/11/15 05:25:00;;;;;;;4.27;3.87;;;;;;;20.78;50.12;97117.66;5017079;28;20255;-94
2022/11/15 05:27:26;;;;;;;4.17;3.77;;;;;;;20.15;50.73;96996.00;5013836;28;20223;-94
2022/11/15 05:29:53;;;;;;;4.43;4.03;;;;;;;20.58;50.62;97069.47;5010552;28;20183;-95
2022/11/15 05:32:19;;;;;;;4.67;4.27;;;;;;;20.70;50.15;97098.72;5017231;28;20194;-94
2022/11/15 05:34:46;;;;;;;4.40;4.03;;;;;;;20.51;50.06;97053.09;4999080;28;20264;-94
2022/11/15 05:37:13;;;;;;;4.53;4.13;;;;;;;20.59;50.28;97061.84;5002224;28;20185;-94
2022/11/15 05:39:40;;;;;;;4.37;3.97;;;;;;;20.08;50.23;96983.91;5018815;28;20183;-93
2022/11/15 05:42:09;;;;;;;4.67;4.27;;;;;;;19.85;50.05;96950.13;5007191;28;20187;-94
2022/11/15 05:44:36;;;;;;;4.50;4.10;;;;;;;20.02;50.18;96967.56;5002321;28;20371;-95
2022/11/15 05:47:03;;;;;;;4.23;3.83;;;;;;;19.88;50.19;96951.91;5034315;28;20246;-96
2022/11/15 05:49:31;;;;;;;4.83;4.37;;;;;;;20.96;50.07;97130.06;5008212;28;20215;-94
2022/11/15 05:51:57;;;;;;;4.07;3.77;;;;;;;21.13;50.14;97152.66;5002418;28;20201;-95
2022/11/15 05:54:24;;;;;;;4.40;4.00;;;;;;;20.59;50.16;97061.84;5002393;28;20206;-95
2022/11/15 05:56:50;;;;;;;4.63;4.23;;;;;;;20.80;49.90;97087.03;5023652;28;20190;-94
2022/11/15 05:59:17;;;;;;;4.23;3.83;;;;;;;21.37;49.87;97186.50;4997790;28;20210;-91
2022/11/15 06:01:44;;;;;;;4.73;4.30;;;;;;;20.37;50.11;97026.34;5025605;28;20197;-93
2022/11/15 06:04:10;;;;;;;4.30;3.90;;;;;;;19.75;50.05;96899.72;5017555;28;20211;-93
2022/11/15 06:06:37;;;;;;;4.40;4.00;;;;;;;20.71;49.95;97066.38;5018399;28;20193;-93
2022/11/15 06:09:03;;;;;;;5.10;3.80;;;;;;;21.22;50.01;97158.00;5004180;28;20225;-89
2022/11/15 06:11:30;;;;;;;4.30;3.90;;;;;;;19.92;50.05;96959.66;5003285;28;20207;-94
2022/11/15 06:13:56;;;;;;;4.53;4.13;;;;;;;20.35;50.31;97009.28;5017539;28;20205;-94
2022/11/15 06:16:23;;;;;;;4.03;3.73;;;;;;;20.46;50.36;97030.84;5001525;28;20183;-94
2022/11/15 06:18:49;;;;;;;6.30;3.67;;;;;;;20.93;50.67;97106.97;5017778;28;20180;-94
2022/11/15 06:21:16;;;;;;;7.97;4.13;;;;;;;20.70;50.43;97062.13;5018759;28;20189;-93
2022/11/15 06:23:42;;;;;;;6.83;6.00;;;;;;;20.92;48.42;97108.66;5003204;28;20206;-93
2022/11/15 06:26:09;;;;;;;8.80;7.90;;;;;;;20.30;45.91;96993.88;5019743;28;20270;-95
2022/11/15 06:28:35;;;;;;;9.80;8.20;;;;;;;19.89;43.95;96934.09;5002085;28;20217;-93
2022/11/15 06:31:03;;;;;;;9.87;8.60;;;;;;;19.86;42.76;96928.03;5002525;28;20255;-94
2022/11/15 06:33:30;;;;;;;10.53;9.37;;;;;;;20.64;41.98;97070.50;5002948;28;20199;-95
2022/11/15 06:36:04;;;;;;;10.37;9.13;;;;;;;19.14;41.46;96819.88;5065450;22;20316;-90
2022/11/15 06:38:32;;;;;;;10.10;9.10;;;;;;;20.20;40.55;96984.25;5006177;28;20189;-94
2022/11/15 06:41:06;;;;;;;10.40;8.80;;;;;;;20.73;40.10;97111.59;5022107;28;20262;-94
2022/11/15 06:43:33;;;;;;;11.13;8.83;;;;;;;20.03;39.49;96998.22;5003631;28;20206;-95
2022/11/15 06:46:00;;;;;;;10.83;8.53;;;;;;;20.05;39.57;97003.34;5015663;28;20183;-94
2022/11/15 06:48:27;;;;;;;9.13;7.73;;;;;;;19.01;39.97;96819.50;5018327;28;20215;-94
2022/11/15 06:50:55;;;;;;;9.67;8.77;;;;;;;20.96;40.62;97192.22;5020579;28;20254;-95
2022/11/15 06:53:22;;;;;;;9.37;8.37;;;;;;;19.94;41.75;96996.28;5005377;28;20262;-94
2022/11/15 06:55:49;;;;;;;10.30;8.03;;;;;;;19.19;42.78;96838.66;5122542;23;20214;-92
2022/11/15 06:58:21;;;;;;;9.13;7.80;;;;;;;20.74;43.52;97120.09;5009145;28;20195;-96
2022/11/15 07:00:47;;;;;;;9.80;7.80;;;;;;;20.40;43.86;97068.97;5005518;28;20241;-96
2022/11/15 07:03:14;;;;;;;9.13;7.40;;;;;;;20.79;44.25;97138.97;5003473;28;20215;-95
2022/11/15 07:05:40;;;;;;;8.10;7.23;;;;;;;20.35;44.71;97070.53;5006396;28;20183;-93
2022/11/15 07:08:07;;;;;;;8.63;7.80;;;;;;;20.75;44.63;97129.50;4981475;28;20225;-93
2022/11/15 07:10:34;;;;;;;8.47;7.53;;;;;;;21.00;44.79;97159.97;4981788;28;20180;-96
2022/11/15 07:13:00;;;;;;;9.10;7.30;;;;;;;19.92;45.19;96982.63;4999281;28;20315;-96
2022/11/15 07:15:27;;;;;;;8.50;7.60;;;;;;;20.54;45.40;97086.38;4997749;28;20192;-96
2022/11/15 07:17:53;;;;;;;9.40;7.07;;;;;;;20.20;45.57;97019.09;5011484;28;20187;-96
2022/11/15 07:20:20;;;;;;;7.20;6.50;;;;;;;19.79;45.69;96960.19;4983842;28;20197;-96
2022/11/15 07:22:46;;;;;;;8.97;7.63;;;;;;;20.82;45.89;97118.59;5005423;28;20203;-96
2022/11/15 07:25:13;;;;;;;12.23;8.83;;;;;;;20.02;44.04;96976.94;4990745;28;20210;-96
2022/11/15 07:27:40;;;;;;;12.70;8.37;;;;;;;21.17;43.79;97177.44;4997590;28;20184;-96
2022/11/15 07:30:07;;;;;;;10.10;7.50;;;;;;;19.98;44.21;96975.97;4981425;28;20207;-96
2022/11/15 07:32:34;;;;;;;8.27;7.37;;;;;;;20.07;44.64;96992.34;4994176;28;20181;-96
2022/11/15 07:35:00;;;;;;;9.93;7.70;;;;;;;20.39;45.04;97055.34;4977285;28;20192;-95
2022/11/15 07:37:27;;;;;;;8.20;7.37;;;;;;;20.08;45.17;96998.34;4978019;28;20227;-96
2022/11/15 07:39:54;;;;;;;9.17;8.10;;;;;;;20.04;45.25;96996.53;4978317;28;20193;-96
2022/11/15 07:45:06;;;;;;;8.97;7.20;;;;;;;20.37;45.54;97051.88;4985894;28;20194;-96
2022/11/15 07:47:32;;;;;;;8.33;7.53;;;;;;;20.42;45.31;97052.88;5012336;28;20247;-96
2022/11/15 07:49:59;;;;;;;8.63;7.40;;;;;;;20.79;45.64;97124.50;5012652;28;20207;-96
2022/11/15 07:52:25;;;;;;;7.93;7.13;;;;;;;20.47;46.08;97075.97;5007414;28;20251;-95
2022/11/15 07:54:52;;;;;;;8.20;7.40;;;;;;;19.59;46.29;96915.44;4971109;28;20428;-94
2022/11/15 07:57:19;;;;;;;8.30;7.03;;;;;;;18.42;46.58;96703.28;5007289;28;20254;-96
2022/11/15 07:59:45;;;;;;;7.93;6.57;;;;;;;20.26;46.41;97025.25;4988334;28;20247;-94
2022/11/15 08:02:12;;;;;;;6.93;6.23;;;;;;;19.85;46.73;96977.31;4999646;28;20220;-95
2022/11/15 08:04:39;;;;;;;7.33;6.47;;;;;;;20.05;46.80;96976.16;4988447;28;20199;-96
2022/11/15 08:07:05;;;;;;;9.50;6.10;;;;;;;21.28;47.37;97183.72;4985374;28;20242;-96
2022/11/15 08:09:32;;;;;;;9.07;5.43;;;;;;;19.91;47.18;96950.31;5016447;28;20270;-96
2022/11/15 08:11:58;;;;;;;7.30;5.40;;;;;;;21.30;47.67;97181.19;4983159;28;20188;-95
2022/11/15 08:14:25;;;;;;;6.50;5.80;;;;;;;20.88;47.47;97106.00;5000592;28;20220;-95
2022/11/15 08:16:52;;;;;;;6.37;5.73;;;;;;;20.07;47.54;96966.00;5006226;28;20188;-96
2022/11/15 08:19:18;;;;;;;6.60;5.60;;;;;;;20.09;47.75;96960.09;4992737;28;20199;-96
2022/11/15 08:21:45;;;;;;;7.07;5.60;;;;;;;20.89;47.88;97093.25;4998871;28;20179;-95
2022/11/15 08:24:13;;;;;;;5.67;5.17;;;;;;;19.26;47.45;96812.56;5000614;28;20203;-96
2022/11/15 08:26:39;;;;;;;6.27;5.67;;;;;;;20.65;47.73;97046.69;5000834;28;20185;-96
2022/11/15 08:29:08;;;;;;;5.70;5.20;;;;;;;20.47;47.81;97015.59;4996452;28;20207;-96
2022/11/15 08:31:36;;;;;;;6.03;5.47;;;;;;;21.12;48.07;97129.63;5029177;28;20194;-96
2022/11/15 08:34:03;;;;;;;7.53;5.53;;;;;;;19.60;47.80;96886.56;4983929;28;20208;-96
2022/11/15 08:36:30;;;;;;;6.47;5.87;;;;;;;20.48;48.44;97014.75;5008820;28;20191;-96
2022/11/15 08:39:10;;;;;;;6.20;5.60;;;;;;;20.28;48.09;96985.28;4992583;28;20194;-96
2022/11/15 08:41:37;;;;;;;5.60;4.83;;;;;;;20.02;48.29;96940.38;4985784;28;20552;-96
2022/11/15 08:44:03;;;;;;;8.33;5.60;;;;;;;20.48;48.60;97004.53;4982297;28;20317;-96
2022/11/15 08:46:30;;;;;;;6.23;5.53;;;;;;;20.10;48.46;96935.47;4999417;28;20300;-96
2022/11/15 08:48:57;;;;;;;8.80;5.30;;;;;;;20.30;48.51;96963.25;4989209;28;20227;-96
2022/11/15 08:51:23;;;;;;;5.97;5.00;;;;;;;20.52;48.15;97000.38;4983460;28;20238;-96
2022/11/15 08:53:50;;;;;;;7.43;5.10;;;;;;;20.48;48.35;96988.34;4967240;28;20213;-96
2022/11/15 08:56:16;;;;;;;5.57;5.03;;;;;;;20.48;48.65;96996.00;5002727;28;20329;-96
2022/11/15 08:58:43;;;;;;;5.97;5.37;;;;;;;20.30;48.63;96970.03;4996462;28;20190;-96
2022/11/15 09:01:19;;;;;;;5.87;5.27;;;;;;;20.93;48.63;97081.44;4964658;28;20195;-96
2022/11/15 09:03:46;;;;;;;5.20;4.73;;;;;;;20.60;48.52;97015.06;4964198;28;20199;-96
2022/11/15 09:06:13;;;;;;;5.93;5.20;;;;;;;19.91;48.87;96912.06;4984093;28;20176;-96
2022/11/15 09:08:40;;;;;;;5.97;5.20;;;;;;;20.16;48.62;96944.16;4983019;28;20195;-96
2022/11/15 09:11:14;;;;;;;5.60;5.10;;;;;;;20.54;48.51;96997.03;5000071;28;20206;-95
2022/11/15 09:13:41;;;;;;;6.97;6.27;;;;;;;20.54;47.92;96974.06;4997542;28;20227;-96
2022/11/15 09:16:07;;;;;;;9.07;6.03;;;;;;;20.74;47.39;97008.59;4998613;28;20183;-94
2022/11/15 09:18:34;;;;;;;7.47;5.77;;;;;;;20.98;46.98;97046.66;5010703;28;20271;-95
2022/11/15 09:21:02;;;;;;;6.93;5.40;;;;;;;20.94;47.64;97035.50;4987862;28;20310;-95
2022/11/15 09:23:29;;;;;;;9.00;5.80;;;;;;;20.16;47.89;96905.91;4993167;28;20204;-96
2022/11/15 09:26:03;;;;;;;6.33;5.73;;;;;;;20.11;48.18;96893.81;5010013;28;20183;-93
2022/11/15 09:31:05;;;;;;;5.77;5.17;;;;;;;20.81;48.12;97009.63;1465366;26;20195;-95
2022/11/15 09:33:31;;;;;;;7.93;5.67;;;;;;;19.69;48.09;96817.13;4977119;28;20219;-95
2022/11/15 09:36:07;;;;;;;6.37;5.37;;;;;;;20.27;48.26;96906.16;4992233;28;20179;-96
2022/11/15 09:38:33;;;;;;;9.67;5.63;;;;;;;20.09;48.25;96883.59;4961481;28;20184;-96
2022/11/15 09:41:13;;;;;;;6.37;5.40;;;;;;;21.35;48.25;97083.31;4963548;28;20239;-95
2022/11/15 09:43:45;;;;;;;6.57;5.47;;;;;;;21.34;48.08;97084.16;4994994;28;20208;-96
2022/11/15 09:46:34;;;;;;;6.90;5.17;;;;;;;20.13;48.45;96890.50;4994913;28;20251;-95
2022/11/15 09:49:01;;;;;;;10.73;5.40;;;;;;;21.35;48.10;97075.66;4996617;28;20263;-96
2022/11/15 09:51:35;;;;;;;9.97;4.97;;;;;;;21.35;48.51;97083.31;4977965;28;20200;-95
2022/11/15 09:54:10;;;;;;;7.33;5.30;;;;;;;21.34;48.29;97068.84;4978014;28;20315;-96
2022/11/15 09:57:10;;;;;;;5.60;5.00;;;;;;;21.36;48.35;97063.75;4981478;28;20180;-96
2022/11/15 10:00:00;;;;;;;5.93;5.20;;;;;;;21.35;48.27;97064.59;4998840;28;20258;-93
2022/11/15 10:03:08;;;;;;;8.10;5.13;;;;;;;20.12;48.42;96860.69;4996654;28;20232;-95
2022/11/15 10:05:41;;;;;;;5.57;4.93;;;;;;;19.85;48.78;96806.47;4995732;28;20218;-94
2022/11/15 10:08:26;;;;;;;5.63;4.93;;;;;;;21.35;48.30;97062.88;4980713;28;20286;-95
2022/11/15 10:11:05;;;;;;;5.50;4.40;;;;;;;20.59;48.67;96935.88;5001647;28;20209;-95
2022/11/15 10:13:53;;;;;;;9.37;5.17;;;;;;;20.88;48.62;96978.28;4996290;28;20200;-95
2022/11/15 10:16:41;;;;;;;5.40;4.90;;;;;;;21.35;48.75;97041.59;4963767;28;20175;-95
2022/11/15 10:19:11;;;;;;;8.50;4.93;;;;;;;21.34;48.87;97037.28;5012150;28;20183;-95
2022/11/15 10:21:45;;;;;;;7.70;5.07;;;;;;;21.33;48.90;97025.34;4994365;28;20179;-95
2022/11/15 10:24:12;;;;;;;6.33;4.50;;;;;;;20.30;49.06;96855.19;4993489;28;20217;-94
2022/11/15 10:26:47;;;;;;;5.47;4.43;;;;;;;21.31;49.19;97009.97;4980340;28;20251;-94
2022/11/15 10:29:19;;;;;;;5.90;4.53;;;;;;;20.87;48.97;96930.59;4996286;28;20219;-95
2022/11/15 10:31:52;;;;;;;5.20;4.40;;;;;;;20.15;49.26;96797.03;4977387;28;20192;-95
2022/11/15 10:34:23;;;;;;;4.53;3.80;;;;;;;20.40;49.06;96831.63;4960837;28;20207;-95
2022/11/15 10:36:57;;;;;;;6.10;4.40;;;;;;;20.85;49.11;96912.69;4961308;28;20184;-95
2022/11/15 10:39:23;;;;;;;6.27;4.23;;;;;;;20.26;49.04;96802.38;4979024;28;20183;-94
2022/11/15 10:41:50;;;;;;;5.30;4.17;;;;;;;20.06;49.04;96768.72;4998655;28;20251;-95
2022/11/15 10:44:21;;;;;;;4.70;4.20;;;;;;;19.74;48.79;96718.66;5015088;28;20217;-96
2022/11/15 10:47:20;;;;;;;5.10;4.33;;;;;;;20.08;48.88;96771.31;4996421;28;20203;-96
2022/11/15 10:49:56;;;;;;;6.33;4.17;;;;;;;19.72;48.83;96702.50;4997509;28;20207;-96
2022/11/15 10:52:24;;;;;;;5.70;4.20;;;;;;;19.98;48.48;96742.19;4982287;28;20215;-95
2022/11/15 10:54:55;;;;;;;4.70;4.10;;;;;;;21.37;48.89;96958.13;4982162;28;20239;-96
2022/11/15 10:57:24;;;;;;;4.90;4.10;;;;;;;20.09;48.68;96760.28;4998858;28;20184;-93
2022/11/15 10:59:56;;;;;;;6.40;4.10;;;;;;;20.17;48.63;96756.25;4982519;28;20203;-95
2022/11/15 11:02:32;;;;;;;5.00;4.17;;;;;;;21.37;48.89;96941.09;4981897;28;20179;-95
2022/11/15 11:04:59;;;;;;;7.50;4.30;;;;;;;21.28;48.71;96948.56;5012118;28;20175;-95
2022/11/15 11:07:28;;;;;;;6.37;4.20;;;;;;;19.52;48.71;96627.25;4965050;28;20196;-96
2022/11/15 11:10:03;;;;;;;4.30;3.90;;;;;;;20.52;48.99;96791.91;4963252;28;20231;-94
2022/11/15 11:12:48;;;;;;;5.13;4.20;;;;;;;20.59;48.92;96787.81;4991804;28;20208;-94
2022/11/15 11:15:15;;;;;;;4.20;3.80;;;;;;;20.66;48.84;96820.31;4995518;28;20176;-93
2022/11/15 11:17:48;;;;;;;4.87;4.30;;;;;;;21.35;48.94;96926.56;4962909;28;20209;-96
2022/11/15 11:20:27;;;;;;;5.00;4.50;;;;;;;20.57;48.83;96786.94;4996151;28;20184;-96
2022/11/15 11:23:03;;;;;;;5.20;4.30;;;;;;;21.35;49.04;96922.28;4951141;28;20219;-93
2022/11/15 11:25:35;;;;;;;6.23;4.50;;;;;;;20.37;48.93;96749.91;4995705;28;20191;-94
2022/11/15 11:28:29;;;;;;;5.83;4.70;;;;;;;20.39;49.00;96761.88;4975540;28;20191;-94
2022/11/15 11:30:59;;;;;;;5.43;4.87;;;;;;;21.35;49.41;96939.34;4975183;28;20212;-96
2022/11/15 11:33:48;;;;;;;6.23;5.10;;;;;;;21.36;49.38;96923.16;4987975;28;20507;-96
2022/11/15 11:36:21;;;;;;;5.77;4.97;;;;;;;21.36;49.25;96910.38;4979119;28;20220;-95
2022/11/15 11:39:07;;;;;;;6.23;4.93;;;;;;;20.81;49.09;96823.19;4994394;28;20176;-94
2022/11/15 11:41:58;;;;;;;6.93;4.50;;;;;;;21.36;49.37;96912.94;4970320;28;20195;-94
2022/11/15 11:44:33;;;;;;;6.70;5.30;;;;;;;20.40;49.40;96743.16;4993987;28;20302;-95
2022/11/15 11:47:01;;;;;;;5.33;4.80;;;;;;;20.12;49.58;96688.94;4961939;28;20214;-95
2022/11/15 11:49:47;;;;;;;6.87;5.17;;;;;;;21.36;49.39;96902.72;4961747;28;20212;-94
2022/11/15 11:52:17;;;;;;;5.63;4.80;;;;;;;20.36;49.48;96733.72;4993173;28;20176;-94
2022/11/15 11:55:11;;;;;;;5.60;4.90;;;;;;;20.57;49.53;96764.81;4974159;28;20290;-95
2022/11/15 11:57:42;;;;;;;7.73;5.07;;;;;;;20.61;49.44;96768.28;4990565;28;20179;-95
2022/11/15 12:00:18;;;;;;;6.17;5.17;;;;;;;21.35;49.50;96878.00;4974863;28;20211;-95
2022/11/15 12:02:54;;;;;;;5.30;4.80;;;;;;;20.13;49.58;96668.59;4979816;28;20245;-94
2022/11/15 12:05:36;;;;;;;5.67;4.43;;;;;;;19.72;49.63;96595.44;4969717;28;20191;-95